Time;durP1;ratioP1;P1;durP2;ratioP2;P2;SDS_P1;SDS_P2;PMS_P1;PMS_P2;Temp;Humidity;BMP_temperature;BMP_pressure;BME280_temperature;BME280_humidity;BME280_pressure;Samples;Min_cycle;Max_cycle;Signal;HPM_P1;HPM_P2
2023/09/27 00:00:45;;;;;;;0.10;0.10;;;;;;;11.62;80.09;101214.25;5130373;27;20092;-67
2023/09/27 00:03:11;;;;;;;0.10;0.10;;;;;;;11.62;80.43;101225.19;5114103;27;20043;-68
2023/09/27 00:05:39;;;;;;;0.10;0.10;;;;;;;11.59;80.42;101227.63;5133301;27;20050;-68
2023/09/27 00:08:06;;;;;;;0.10;0.10;;;;;;;11.57;80.66;101216.09;5135737;27;20039;-68
2023/09/27 00:10:33;;;;;;;0.10;0.10;;;;;;;11.63;81.04;101224.16;5118508;27;20134;-68
2023/09/27 00:13:00;;;;;;;0.10;0.10;;;;;;;11.71;81.42;101224.81;5107512;27;20047;-68
2023/09/27 00:15:26;;;;;;;0.10;0.10;;;;;;;11.74;80.84;101214.19;5136551;27;20447;-68
2023/09/27 00:17:52;;;;;;;0.10;0.10;;;;;;;11.82;80.58;101220.34;5128234;27;20142;-68
2023/09/27 00:20:19;;;;;;;0.10;0.10;;;;;;;11.86;79.94;101216.84;5133437;27;20043;-67
2023/09/27 00:22:48;;;;;;;0.10;0.10;;;;;;;11.88;80.10;101220.16;5128388;27;20143;-67
2023/09/27 00:25:14;;;;;;;0.10;0.10;;;;;;;11.92;80.20;101215.03;5106585;27;20061;-67
2023/09/27 00:27:41;;;;;;;0.10;0.10;;;;;;;11.90;79.76;101207.03;5124786;27;20071;-68
2023/09/27 00:30:09;;;;;;;;;;;;;;;11.82;80.14;101212.13;5106392;27;20417;-68
2023/09/27 00:32:35;;;;;;;0.10;0.10;;;;;;;11.71;80.25;101211.97;5113761;27;19977;-68
2023/09/27 00:35:02;;;;;;;0.10;0.10;;;;;;;11.62;80.87;101210.69;5128455;27;20095;-67
2023/09/27 00:37:32;;;;;;;0.10;0.10;;;;;;;11.54;81.83;101209.19;5081387;27;20104;-68
2023/09/27 00:39:59;;;;;;;0.10;0.10;;;;;;;11.48;82.45;101210.19;5122710;27;20051;-68
2023/09/27 00:42:28;;;;;;;;;;;;;;;11.45;83.31;101210.66;5127050;27;20300;-67
2023/09/27 00:44:54;;;;;;;0.10;0.10;;;;;;;11.45;83.15;101211.50;5094909;27;19923;-67
2023/09/27 00:47:21;;;;;;;0.10;0.10;;;;;;;11.45;83.07;101200.53;5135620;27;20108;-69
2023/09/27 00:49:50;;;;;;;0.10;0.10;;;;;;;11.54;82.75;101214.66;5129216;27;20100;-69
2023/09/27 00:52:17;;;;;;;0.10;0.10;;;;;;;11.58;82.50;101213.09;5115957;27;20127;-66
2023/09/27 00:54:43;;;;;;;0.10;0.10;;;;;;;11.59;82.60;101212.00;5106659;27;20047;-68
2023/09/27 00:57:11;;;;;;;0.10;0.10;;;;;;;11.55;83.05;101210.00;5126908;27;20501;-68
2023/09/27 00:59:38;;;;;;;0.10;0.10;;;;;;;11.53;83.19;101210.28;5111802;27;20079;-68
2023/09/27 01:02:06;;;;;;;0.10;0.10;;;;;;;11.49;83.32;101220.88;5139017;27;20070;-68
2023/09/27 01:04:33;;;;;;;0.10;0.10;;;;;;;11.47;83.11;101217.56;5099796;27;20461;-67
2023/09/27 01:07:01;;;;;;;0.10;0.10;;;;;;;11.51;83.56;101219.81;5101431;27;20039;-67
2023/09/27 01:09:31;;;;;;;0.10;0.10;;;;;;;11.56;83.99;101222.66;5107568;27;20050;-68
2023/09/27 01:11:58;;;;;;;0.10;0.10;;;;;;;11.58;83.72;101215.00;5115480;27;20091;-67
2023/09/27 01:14:25;;;;;;;0.10;0.10;;;;;;;11.56;83.20;101207.03;5106765;27;20510;-68
2023/09/27 01:16:52;;;;;;;0.10;0.10;;;;;;;11.62;83.13;101221.66;5107712;27;20381;-68
2023/09/27 01:19:18;;;;;;;0.10;0.10;;;;;;;11.66;83.29;101214.59;5105216;27;20042;-67
2023/09/27 01:21:44;;;;;;;0.10;0.10;;;;;;;11.78;83.51;101225.47;5097202;27;20058;-68
2023/09/27 01:24:12;;;;;;;0.10;0.10;;;;;;;11.94;82.59;101217.50;5132015;27;20051;-67
2023/09/27 01:26:39;;;;;;;0.10;0.10;;;;;;;12.06;82.22;101212.81;5085559;27;20051;-68
2023/09/27 01:29:06;;;;;;;0.10;0.10;;;;;;;12.10;81.95;101213.13;5130936;27;20043;-67
2023/09/27 01:31:32;;;;;;;0.10;0.10;;;;;;;11.99;81.31;101212.13;5099488;27;20739;-68
2023/09/27 01:33:58;;;;;;;0.10;0.10;;;;;;;11.91;81.93;101210.63;5116852;27;20124;-68
2023/09/27 01:36:25;;;;;;;0.10;0.10;;;;;;;11.84;82.07;101210.78;5128421;27;20058;-68
2023/09/27 01:38:51;;;;;;;0.10;0.10;;;;;;;11.77;82.33;101201.88;5124923;27;20058;-68
2023/09/27 01:41:19;;;;;;;0.10;0.10;;;;;;;11.70;82.41;101209.47;5110699;27;20091;-66
2023/09/27 01:43:45;;;;;;;0.10;0.10;;;;;;;11.64;82.58;101208.53;5132944;27;20047;-68
2023/09/27 01:46:11;;;;;;;0.10;0.10;;;;;;;11.63;82.52;101212.34;5107724;27;20104;-68
2023/09/27 01:48:37;;;;;;;0.10;0.10;;;;;;;11.65;82.37;101210.19;5128818;27;20070;-68
2023/09/27 01:51:04;;;;;;;0.10;0.10;;;;;;;11.76;82.26;101213.94;5094853;27;20043;-68
2023/09/27 01:53:30;;;;;;;0.10;0.10;;;;;;;11.85;80.92;101220.66;5113708;27;20051;-68
2023/09/27 01:55:56;;;;;;;0.10;0.10;;;;;;;11.95;79.87;101221.94;5131471;27;20634;-68
2023/09/27 01:58:27;;;;;;;0.17;0.17;;;;;;;12.08;79.50;101213.38;5112364;27;20448;-69
2023/09/27 02:00:53;;;;;;;0.10;0.10;;;;;;;12.17;78.34;101211.88;5114875;27;20116;-68
2023/09/27 02:03:20;;;;;;;0.10;0.10;;;;;;;12.22;78.17;101213.88;5090349;27;20039;-68
2023/09/27 02:05:47;;;;;;;0.20;0.20;;;;;;;12.22;77.66;101213.03;5133588;27;20039;-68
2023/09/27 02:08:15;;;;;;;0.10;0.10;;;;;;;12.16;78.14;101212.97;5118570;27;20421;-69
2023/09/27 02:10:41;;;;;;;0.10;0.10;;;;;;;12.14;78.53;101204.16;5133500;27;20043;-68
2023/09/27 02:13:08;;;;;;;0.10;0.10;;;;;;;12.12;78.43;101211.81;5113984;27;20071;-68
2023/09/27 02:15:36;;;;;;;0.10;0.10;;;;;;;12.01;78.67;101208.06;5091588;27;20066;-69
2023/09/27 02:18:03;;;;;;;0.10;0.10;;;;;;;11.92;78.43;101212.28;5108214;27;20047;-69
2023/09/27 02:20:29;;;;;;;0.10;0.10;;;;;;;11.82;79.00;101203.88;5113249;27;20046;-68
2023/09/27 02:22:56;;;;;;;0.10;0.10;;;;;;;11.75;78.97;101207.63;5108716;27;20058;-68
2023/09/27 02:25:22;;;;;;;0.10;0.10;;;;;;;11.69;79.43;101205.06;5133725;27;20051;-69
2023/09/27 02:27:49;;;;;;;0.10;0.10;;;;;;;11.62;79.56;101211.50;5133348;27;20124;-69
2023/09/27 02:30:15;;;;;;;0.10;0.10;;;;;;;11.58;80.11;101199.41;5106011;27;20142;-68
2023/09/27 02:32:45;;;;;;;0.10;0.10;;;;;;;11.56;79.73;101207.03;5111406;27;20066;-68
2023/09/27 02:35:13;;;;;;;0.10;0.10;;;;;;;11.53;79.32;101204.78;5131001;27;20067;-69
2023/09/27 02:37:41;;;;;;;0.10;0.10;;;;;;;11.49;79.44;101201.72;5112113;27;20489;-68
2023/09/27 02:40:12;;;;;;;0.10;0.10;;;;;;;11.42;79.74;101198.31;5124251;27;20039;-68
2023/09/27 02:42:40;;;;;;;0.10;0.10;;;;;;;11.35;79.95;101198.47;5105870;27;20058;-68
2023/09/27 02:45:08;;;;;;;0.20;0.10;;;;;;;11.28;81.07;101199.69;5130047;27;20043;-68
2023/09/27 02:47:35;;;;;;;0.10;0.10;;;;;;;11.23;80.97;101203.16;5132629;27;20130;-68
2023/09/27 02:50:05;;;;;;;0.10;0.10;;;;;;;11.21;82.09;101194.34;5123553;27;20449;-68
2023/09/27 02:52:32;;;;;;;0.10;0.10;;;;;;;11.16;82.29;101199.72;5112953;27;20141;-68
2023/09/27 02:54:58;;;;;;;0.10;0.10;;;;;;;11.15;82.21;101193.44;5075154;27;20257;-68
2023/09/27 02:57:25;;;;;;;0.10;0.10;;;;;;;11.12;82.45;101199.41;5124753;27;20120;-68
2023/09/27 02:59:51;;;;;;;0.10;0.10;;;;;;;11.11;82.19;101200.47;5125987;27;20055;-69
2023/09/27 03:02:20;;;;;;;0.10;0.10;;;;;;;11.07;82.46;101186.44;5107144;27;20532;-68
2023/09/27 03:04:47;;;;;;;0.10;0.10;;;;;;;11.08;82.97;101187.25;5110445;27;20088;-68
2023/09/27 03:07:16;;;;;;;0.10;0.10;;;;;;;11.05;83.63;101202.28;5117685;27;20046;-68
2023/09/27 03:09:43;;;;;;;0.10;0.10;;;;;;;11.04;84.01;101194.28;5126016;27;20043;-68
2023/09/27 03:12:11;;;;;;;0.10;0.10;;;;;;;11.09;84.29;101194.41;5110860;27;20403;-67
2023/09/27 03:14:38;;;;;;;0.10;0.10;;;;;;;11.08;84.27;101195.47;5130679;27;20046;-67
2023/09/27 03:17:04;;;;;;;0.10;0.10;;;;;;;11.08;84.22;101195.47;5131594;27;20153;-67
2023/09/27 03:19:32;;;;;;;0.10;0.10;;;;;;;10.97;84.19;101177.19;5112684;27;20046;-67
2023/09/27 03:21:58;;;;;;;0.10;0.10;;;;;;;11.13;84.00;101198.31;5109931;27;20055;-67
2023/09/27 03:24:26;;;;;;;0.10;0.10;;;;;;;11.19;83.07;101191.03;5112880;27;20340;-67
2023/09/27 03:26:53;;;;;;;0.10;0.10;;;;;;;11.23;83.45;101205.03;5126085;27;20576;-68
2023/09/27 03:29:19;;;;;;;0.10;0.10;;;;;;;11.13;83.60;101175.56;5127707;27;20056;-67
2023/09/27 03:31:46;;;;;;;0.10;0.10;;;;;;;11.35;83.30;101200.34;5107647;27;20422;-68
2023/09/27 03:34:12;;;;;;;0.10;0.10;;;;;;;11.48;82.54;101204.72;5109407;27;20734;-67
2023/09/27 03:36:39;;;;;;;0.10;0.10;;;;;;;11.60;82.17;101199.97;5106495;27;20292;-67
2023/09/27 03:39:05;;;;;;;0.10;0.10;;;;;;;11.68;81.23;101201.47;5079809;27;20075;-66
2023/09/27 03:41:34;;;;;;;0.10;0.10;;;;;;;11.60;81.17;101174.50;5110404;27;20057;-67
2023/09/27 03:44:03;;;;;;;0.10;0.10;;;;;;;11.75;80.58;101201.31;5094620;27;20043;-68
2023/09/27 03:46:30;;;;;;;0.10;0.10;;;;;;;11.80;80.03;101201.41;5116081;27;20532;-68
2023/09/27 03:48:57;;;;;;;0.10;0.10;;;;;;;11.84;79.83;101193.50;5118532;27;20395;-68
2023/09/27 03:51:24;;;;;;;0.10;0.10;;;;;;;11.83;79.57;101197.31;5113855;27;20043;-66
2023/09/27 03:53:51;;;;;;;0.10;0.10;;;;;;;11.87;79.93;101195.78;5101621;27;20133;-68
2023/09/27 03:56:19;;;;;;;0.10;0.10;;;;;;;11.84;80.41;101201.72;5095411;27;20561;-67
2023/09/27 03:58:46;;;;;;;0.10;0.10;;;;;;;11.79;81.01;101194.28;5111417;27;20078;-67
2023/09/27 04:01:12;;;;;;;;;;;;;;;11.74;81.31;101196.91;5123814;27;20050;-67
2023/09/27 04:03:38;;;;;;;0.10;0.10;;;;;;;11.71;81.36;101202.91;5135641;27;19931;-68
2023/09/27 04:06:05;;;;;;;0.10;0.10;;;;;;;11.65;81.42;101195.69;5106462;27;20047;-68
2023/09/27 04:08:32;;;;;;;0.10;0.10;;;;;;;11.64;81.60;101197.56;5123881;27;20137;-68
2023/09/27 04:10:59;;;;;;;0.10;0.10;;;;;;;11.65;81.96;101201.97;5134928;27;20059;-68
2023/09/27 04:13:25;;;;;;;0.10;0.10;;;;;;;11.64;82.40;101194.84;5078645;27;20069;-68
2023/09/27 04:15:53;;;;;;;0.10;0.10;;;;;;;11.69;82.20;101192.16;5111528;27;20143;-67
2023/09/27 04:18:19;;;;;;;0.10;0.10;;;;;;;11.74;82.36;101192.28;5131710;27;20092;-68
2023/09/27 04:20:45;;;;;;;0.10;0.10;;;;;;;11.82;82.52;101187.44;5111799;27;20071;-67
2023/09/27 04:23:11;;;;;;;0.10;0.10;;;;;;;11.90;81.90;101192.53;5119138;27;20107;-67
2023/09/27 04:25:37;;;;;;;0.10;0.10;;;;;;;11.98;80.58;101194.84;5108426;27;20051;-68
2023/09/27 04:28:04;;;;;;;0.10;0.10;;;;;;;12.07;80.26;101195.28;5104614;27;20473;-68
2023/09/27 04:30:31;;;;;;;0.20;0.20;;;;;;;12.14;80.65;101193.19;5124474;27;20046;-67
2023/09/27 04:33:00;;;;;;;0.13;0.13;;;;;;;12.27;79.68;101182.97;5131570;27;20125;-69
2023/09/27 04:35:26;;;;;;;0.20;0.20;;;;;;;12.28;78.75;101188.19;5133403;27;20066;-69
2023/09/27 04:37:53;;;;;;;0.20;0.20;;;;;;;12.36;77.93;101194.34;5104886;27;20051;-68
2023/09/27 04:40:19;;;;;;;0.20;0.20;;;;;;;12.47;77.33;101188.72;5080161;27;20043;-68
2023/09/27 04:42:47;;;;;;;0.20;0.20;;;;;;;12.62;77.63;101199.06;5123591;27;20047;-68
2023/09/27 04:45:14;;;;;;;0.20;0.20;;;;;;;12.76;77.10;101194.03;5118129;27;20063;-68
2023/09/27 04:47:41;;;;;;;0.20;0.20;;;;;;;12.87;76.79;101196.88;5132680;27;20550;-72
2023/09/27 04:50:10;;;;;;;0.10;0.10;;;;;;;12.87;75.36;101194.13;5090790;27;20425;-68
2023/09/27 04:52:37;;;;;;;0.20;0.20;;;;;;;12.86;75.52;101195.22;5131864;27;20574;-68
2023/09/27 04:55:05;;;;;;;0.20;0.20;;;;;;;12.89;74.91;101195.56;5130070;27;20075;-69
2023/09/27 04:57:32;;;;;;;0.20;0.20;;;;;;;12.96;74.31;101200.03;5130308;27;20070;-68
2023/09/27 04:59:58;;;;;;;0.20;0.20;;;;;;;12.95;74.20;101193.69;5130704;27;20055;-68
2023/09/27 05:02:25;;;;;;;0.10;0.10;;;;;;;12.90;73.62;101193.66;5118360;27;20209;-68
2023/09/27 05:04:52;;;;;;;0.10;0.10;;;;;;;12.86;73.73;101197.97;5122540;27;20051;-68
2023/09/27 05:07:20;;;;;;;0.20;0.20;;;;;;;12.87;73.47;101200.47;5096414;27;20046;-69
2023/09/27 05:09:47;;;;;;;0.20;0.20;;;;;;;12.90;73.68;101197.22;5136563;27;20095;-69
2023/09/27 05:12:14;;;;;;;0.20;0.20;;;;;;;13.00;73.26;101204.72;5110791;27;20137;-70
2023/09/27 05:14:41;;;;;;;0.65;0.20;;;;;;;13.02;72.95;101204.50;5136868;27;20043;-70
2023/09/27 05:17:09;;;;;;;0.20;0.20;;;;;;;13.04;72.80;101210.53;5123605;27;20035;-70
2023/09/27 05:19:36;;;;;;;0.20;0.20;;;;;;;13.13;72.52;101199.94;5126971;27;20069;-70
2023/09/27 05:22:03;;;;;;;0.20;0.20;;;;;;;13.21;72.38;101202.22;5100089;28;20533;-69
2023/09/27 05:24:38;;;;;;;0.20;0.20;;;;;;;13.06;71.26;101169.94;5089997;27;20463;-70
2023/09/27 05:27:06;;;;;;;0.20;0.20;;;;;;;13.29;71.18;101199.00;5092659;28;20047;-71
2023/09/27 05:29:32;;;;;;;0.10;0.10;;;;;;;13.36;70.79;101201.56;5105077;28;20482;-71
2023/09/27 05:31:59;;;;;;;0.20;0.20;;;;;;;13.44;70.34;101200.28;5100019;28;20047;-71
2023/09/27 05:34:26;;;;;;;0.20;0.20;;;;;;;13.49;70.07;101202.25;5077969;28;20044;-69
2023/09/27 05:36:52;;;;;;;0.20;0.20;;;;;;;13.52;69.29;101202.56;5097076;28;20044;-71
2023/09/27 05:39:18;;;;;;;0.20;0.20;;;;;;;13.57;69.53;101197.13;5106147;28;20126;-70
2023/09/27 05:41:46;;;;;;;0.20;0.20;;;;;;;13.64;69.25;101198.81;5087949;28;20050;-72
2023/09/27 05:44:12;;;;;;;0.20;0.20;;;;;;;13.72;69.20;101212.09;5093646;28;20055;-72
2023/09/27 05:46:40;;;;;;;0.20;0.20;;;;;;;13.80;68.54;101206.09;5105800;28;20049;-70
2023/09/27 05:49:09;;;;;;;0.20;0.20;;;;;;;13.95;68.73;101208.16;5103883;28;20047;-71
2023/09/27 05:51:35;;;;;;;0.20;0.20;;;;;;;14.20;68.07;101203.91;5071858;28;20485;-70
2023/09/27 05:54:02;;;;;;;0.25;0.25;;;;;;;14.53;66.72;101212.94;5097271;28;20339;-71
2023/09/27 05:56:29;;;;;;;0.20;0.20;;;;;;;14.71;65.16;101197.03;5088206;28;20048;-70
2023/09/27 05:58:59;;;;;;;0.20;0.20;;;;;;;15.01;64.41;101201.03;5102839;28;20044;-69
2023/09/27 06:01:26;;;;;;;0.20;0.20;;;;;;;15.16;63.25;101211.25;5106584;28;20119;-71
2023/09/27 06:03:52;;;;;;;0.30;0.30;;;;;;;15.37;62.47;101203.03;5104466;28;20040;-69
2023/09/27 06:06:18;;;;;;;0.20;0.20;;;;;;;15.59;61.06;101206.38;5104246;28;20116;-70
2023/09/27 06:08:44;;;;;;;0.20;0.20;;;;;;;15.70;60.19;101209.16;5102926;28;20047;-71
2023/09/27 06:11:11;;;;;;;0.20;0.20;;;;;;;15.71;59.98;101210.81;5097164;28;20062;-71
2023/09/27 06:13:38;;;;;;;0.30;0.30;;;;;;;15.73;59.69;101209.41;5091192;28;20048;-71
2023/09/27 06:16:14;;;;;;;0.30;0.30;;;;;;;15.62;59.59;101210.53;5092355;28;20108;-70
2023/09/27 06:18:45;;;;;;;0.22;0.22;;;;;;;15.52;59.56;101207.75;5091888;28;20904;-69
2023/09/27 06:21:11;;;;;;;0.28;0.28;;;;;;;15.51;59.38;101215.19;5100002;28;20047;-69
2023/09/27 06:23:37;;;;;;;0.20;0.20;;;;;;;15.49;59.45;101205.56;5090481;28;20055;-69
2023/09/27 06:26:05;;;;;;;0.30;0.30;;;;;;;15.62;59.47;101206.94;5096681;28;20052;-69
2023/09/27 06:28:31;;;;;;;0.20;0.20;;;;;;;15.85;58.47;101214.66;5095901;28;20051;-70
2023/09/27 06:30:59;;;;;;;0.30;0.30;;;;;;;16.06;57.92;101219.34;5088587;28;20128;-71
2023/09/27 06:33:26;;;;;;;;;;;;;;;16.39;57.31;101222.63;5105371;27;20055;-69
2023/09/27 06:35:53;;;;;;;0.30;0.30;;;;;;;16.67;56.46;101226.69;5091979;27;20024;-69
2023/09/27 06:38:21;;;;;;;0.30;0.30;;;;;;;17.06;54.98;101218.81;5094857;27;20048;-69
2023/09/27 06:40:48;;;;;;;0.30;0.30;;;;;;;17.40;53.68;101212.53;5088446;28;20040;-71
2023/09/27 06:43:14;;;;;;;0.30;0.30;;;;;;;17.62;53.10;101212.09;5093159;27;20044;-71
2023/09/27 06:45:41;;;;;;;0.30;0.30;;;;;;;17.70;52.28;101213.41;5070860;28;20328;-71
2023/09/27 06:48:08;;;;;;;0.20;0.20;;;;;;;17.61;52.28;101199.38;5095661;28;20297;-71
2023/09/27 06:50:40;;;;;;;0.30;0.30;;;;;;;17.91;51.98;101211.31;5094850;28;20040;-71
2023/09/27 06:53:07;;;;;;;0.30;0.30;;;;;;;18.11;51.49;101204.81;5095317;28;20534;-71
2023/09/27 06:55:33;;;;;;;0.30;0.30;;;;;;;18.27;50.72;101194.41;5079331;28;20044;-69
2023/09/27 06:57:59;;;;;;;0.40;0.40;;;;;;;18.67;49.99;101201.72;5095567;28;20051;-69
2023/09/27 07:00:26;;;;;;;0.30;0.30;;;;;;;18.91;49.28;101204.44;5097118;28;20048;-70
2023/09/27 07:02:53;;;;;;;0.40;0.40;;;;;;;18.99;48.70;101195.50;5074372;28;20063;-72
2023/09/27 07:05:23;;;;;;;0.57;0.40;;;;;;;19.22;48.40;101204.06;5096858;28;20040;-70
2023/09/27 07:07:54;;;;;;;0.30;0.30;;;;;;;19.40;47.43;101213.50;5094755;28;20387;-69
2023/09/27 07:10:21;;;;;;;0.40;0.40;;;;;;;19.40;47.39;101207.97;5092455;28;20068;-70
2023/09/27 07:12:47;;;;;;;;;;;;;;;19.16;46.94;101190.56;5091878;28;20105;-70
2023/09/27 07:15:14;;;;;;;0.30;0.30;;;;;;;19.16;47.20;101212.75;5089686;28;20339;-69
2023/09/27 07:17:41;;;;;;;0.40;0.40;;;;;;;19.37;47.19;101204.94;5090132;28;20079;-70
2023/09/27 07:20:23;;;;;;;0.47;0.30;;;;;;;19.74;45.79;101213.53;5088304;27;20044;-69
2023/09/27 07:22:50;;;;;;;0.30;0.30;;;;;;;19.75;45.45;101217.97;5090681;28;20483;-70
2023/09/27 07:25:19;;;;;;;0.30;0.30;;;;;;;19.84;45.25;101216.16;5092537;28;20044;-69
2023/09/27 07:27:48;;;;;;;0.30;0.30;;;;;;;19.83;44.92;101220.06;5093385;28;20139;-71
2023/09/27 07:30:18;;;;;;;0.30;0.30;;;;;;;19.97;44.61;101220.91;5090810;28;20040;-71
2023/09/27 07:32:45;;;;;;;0.30;0.30;;;;;;;20.42;44.05;101227.91;5091479;28;20147;-70
2023/09/27 07:35:14;;;;;;;0.30;0.30;;;;;;;20.38;43.11;101227.72;5092892;28;20043;-70
2023/09/27 07:37:41;;;;;;;0.30;0.30;;;;;;;20.48;43.51;101223.91;5093895;28;20044;-72
2023/09/27 07:40:12;;;;;;;0.30;0.30;;;;;;;20.64;43.01;101218.84;5097102;28;20109;-71
2023/09/27 07:42:43;;;;;;;0.30;0.30;;;;;;;21.12;42.01;101222.31;5095539;28;20084;-69
2023/09/27 07:45:21;;;;;;;0.30;0.30;;;;;;;21.39;41.47;101228.97;5091482;28;20427;-71
2023/09/27 07:47:50;;;;;;;0.35;0.35;;;;;;;21.55;41.11;101223.88;5073976;28;20051;-69
2023/09/27 07:50:17;;;;;;;0.30;0.30;;;;;;;21.68;40.22;101220.22;5091542;28;20048;-68
2023/09/27 07:52:44;;;;;;;0.30;0.30;;;;;;;21.86;39.49;101227.88;5078123;28;20051;-71
2023/09/27 07:55:14;;;;;;;0.35;0.35;;;;;;;21.81;39.48;101226.03;5091839;28;20043;-70
2023/09/27 07:57:52;;;;;;;0.30;0.30;;;;;;;21.94;39.21;101227.13;5092670;28;20279;-71
2023/09/27 08:00:25;;;;;;;0.30;0.30;;;;;;;22.03;39.43;101219.63;5086482;28;20094;-70
2023/09/27 08:02:54;;;;;;;0.40;0.40;;;;;;;22.80;37.99;101219.50;5090161;28;20618;-71
2023/09/27 08:05:22;;;;;;;0.30;0.30;;;;;;;23.02;37.39;101225.25;5077977;28;20060;-71
2023/09/27 08:07:49;;;;;;;0.30;0.30;;;;;;;23.15;37.52;101223.50;5075320;28;20047;-70
2023/09/27 08:10:17;;;;;;;0.40;0.40;;;;;;;23.17;36.77;101219.22;5099450;28;20191;-72
2023/09/27 08:12:45;;;;;;;0.40;0.40;;;;;;;22.98;37.13;101200.03;5094551;28;20047;-69
2023/09/27 08:15:12;;;;;;;0.40;0.40;;;;;;;23.54;36.63;101212.53;5093613;28;20036;-69
2023/09/27 08:17:39;;;;;;;0.35;0.35;;;;;;;23.73;35.90;101207.44;5088819;28;20048;-69
2023/09/27 08:20:07;;;;;;;0.40;0.40;;;;;;;23.37;36.25;101203.03;5081942;28;20553;-72
2023/09/27 08:22:34;;;;;;;0.40;0.40;;;;;;;23.37;36.31;101203.84;5081344;28;20334;-70
2023/09/27 08:25:01;;;;;;;0.30;0.30;;;;;;;23.61;35.70;101205.31;5092940;28;20071;-69
2023/09/27 08:27:31;;;;;;;0.30;0.30;;;;;;;23.77;35.76;101199.22;5088312;28;20051;-69
2023/09/27 08:29:58;;;;;;;0.30;0.30;;;;;;;24.03;35.25;101201.97;5097752;28;20142;-69
2023/09/27 08:32:25;;;;;;;0.40;0.40;;;;;;;23.93;35.41;101196.72;5094462;28;20036;-70
2023/09/27 08:34:51;;;;;;;0.40;0.40;;;;;;;24.18;34.98;101203.41;5088842;28;20069;-71
2023/09/27 08:37:17;;;;;;;0.40;0.40;;;;;;;24.31;34.23;101201.56;5091122;28;20048;-70
2023/09/27 08:39:44;;;;;;;0.40;0.40;;;;;;;23.94;34.91;101198.34;5094200;28;20069;-69
2023/09/27 08:42:11;;;;;;;0.40;0.40;;;;;;;23.88;34.97;101205.28;5090228;28;20298;-70
2023/09/27 08:44:39;;;;;;;0.40;0.40;;;;;;;23.77;34.86;101190.84;5090404;28;20066;-70
2023/09/27 08:47:06;;;;;;;0.40;0.40;;;;;;;23.87;35.06;101195.25;5073056;28;20144;-70
2023/09/27 08:49:33;;;;;;;0.50;0.45;;;;;;;24.08;34.75;101189.81;5091860;28;20043;-69
2023/09/27 08:52:02;;;;;;;1.38;0.52;;;;;;;24.22;34.36;101192.38;5094280;28;20043;-70
2023/09/27 08:54:28;;;;;;;0.38;0.38;;;;;;;23.74;35.16;101189.53;5059269;28;20051;-70
2023/09/27 08:56:55;;;;;;;0.40;0.40;;;;;;;23.64;35.36;101189.88;5071361;28;20054;-70
2023/09/27 08:59:22;;;;;;;0.40;0.40;;;;;;;23.57;35.89;101190.38;5090461;28;20351;-70
2023/09/27 09:01:52;;;;;;;0.30;0.30;;;;;;;23.90;35.44;101184.25;5092524;28;20138;-71
2023/09/27 09:04:19;;;;;;;0.40;0.40;;;;;;;23.97;34.86;101188.50;5091904;28;20043;-69
2023/09/27 09:06:45;;;;;;;0.40;0.40;;;;;;;23.74;35.03;101194.31;5088565;28;20039;-69
2023/09/27 09:09:12;;;;;;;0.40;0.40;;;;;;;23.46;36.16;101189.09;5090059;28;20044;-69
2023/09/27 09:11:43;;;;;;;0.50;0.50;;;;;;;23.64;36.05;101190.69;5092376;28;20059;-69
2023/09/27 09:14:10;;;;;;;0.40;0.40;;;;;;;23.57;35.64;101187.59;5085337;28;20101;-69
2023/09/27 09:16:39;;;;;;;0.50;0.50;;;;;;;23.62;35.73;101186.59;5079630;28;20043;-69
2023/09/27 09:19:22;;;;;;;0.50;0.50;;;;;;;23.90;35.34;101180.63;5091048;28;20503;-70
2023/09/27 09:21:56;;;;;;;0.50;0.50;;;;;;;24.00;35.07;101187.81;5100390;27;20132;-71
2023/09/27 09:24:23;;;;;;;0.50;0.50;;;;;;;23.75;35.21;101185.59;5102938;28;20060;-74
2023/09/27 09:27:03;;;;;;;;;;;;;;;23.43;35.92;101176.59;5116612;27;20051;-68
2023/09/27 09:29:45;;;;;;;0.40;0.40;;;;;;;23.92;35.29;101183.91;5116647;28;19931;-69
2023/09/27 09:32:12;;;;;;;0.50;0.50;;;;;;;24.08;35.42;101179.44;5096841;27;20044;-68
2023/09/27 09:34:41;;;;;;;0.60;0.60;;;;;;;24.03;35.17;101179.63;5095305;28;20556;-69
2023/09/27 09:37:16;;;;;;;0.50;0.50;;;;;;;23.84;35.36;101179.16;5114772;28;20027;-71
2023/09/27 09:39:43;;;;;;;0.50;0.50;;;;;;;23.44;35.83;101183.81;5103839;28;20055;-69
2023/09/27 09:42:09;;;;;;;0.30;0.30;;;;;;;23.18;36.27;101181.00;5112217;28;20050;-70
2023/09/27 09:44:36;;;;;;;0.60;0.60;;;;;;;23.59;35.87;101176.91;5076490;28;20131;-70
2023/09/27 09:47:12;;;;;;;0.50;0.50;;;;;;;24.87;33.71;101163.47;5095531;28;20039;-70
2023/09/27 09:49:38;;;;;;;0.50;0.50;;;;;;;26.31;31.82;101161.44;5107719;28;20046;-70
2023/09/27 09:52:11;;;;;;;0.60;0.60;;;;;;;27.31;29.90;101162.09;5117902;28;20111;-70
2023/09/27 09:54:49;;;;;;;0.60;0.60;;;;;;;27.55;29.38;101161.19;5073625;28;20526;-69
2023/09/27 09:57:20;;;;;;;0.60;0.60;;;;;;;27.83;29.11;101151.06;5086981;28;20100;-68
2023/09/27 09:59:56;;;;;;;0.50;0.50;;;;;;;28.64;27.48;101163.13;5102490;27;20216;-70
2023/09/27 10:02:26;;;;;;;0.50;0.50;;;;;;;28.58;27.48;101160.59;5131138;27;20047;-69
2023/09/27 10:04:55;;;;;;;0.50;0.50;;;;;;;27.78;28.27;101156.97;5129674;27;20077;-71
2023/09/27 10:07:23;;;;;;;0.50;0.50;;;;;;;27.68;28.18;101161.13;5126227;27;20054;-68
2023/09/27 10:09:50;;;;;;;0.50;0.50;;;;;;;28.08;27.96;101151.72;5083408;27;20112;-70
2023/09/27 10:12:17;;;;;;;;;;;;;;;28.39;27.30;101149.31;5105817;27;20047;-69
2023/09/27 10:14:46;;;;;;;0.50;0.50;;;;;;;27.96;27.87;101157.47;5113657;27;20290;-69
2023/09/27 10:17:20;;;;;;;0.50;0.50;;;;;;;28.86;26.74;101150.38;5089159;28;20039;-70
2023/09/27 10:20:11;;;;;;;0.50;0.50;;;;;;;29.64;25.76;101141.13;5090101;27;20043;-67
2023/09/27 10:22:40;;;;;;;0.50;0.50;;;;;;;29.82;25.41;101140.63;5116270;27;20062;-69
2023/09/27 10:25:31;;;;;;;0.50;0.50;;;;;;;30.23;25.13;101138.16;5085551;27;20066;-71
2023/09/27 10:31:05;;;;;;;0.60;0.60;;;;;;;29.91;24.83;101137.56;5119396;27;20054;-69
2023/09/27 10:33:32;;;;;;;0.60;0.60;;;;;;;28.83;26.07;101132.25;5114163;27;20050;-69
2023/09/27 10:36:17;;;;;;;;;;;;;;;28.72;26.40;101140.44;5099801;27;20138;-69
2023/09/27 10:39:02;;;;;;;0.50;0.50;;;;;;;29.48;25.40;101138.41;5099953;27;19945;-68
2023/09/27 10:41:56;;;;;;;0.60;0.60;;;;;;;30.65;24.69;101124.25;5102470;27;20496;-68
2023/09/27 10:44:30;;;;;;;0.70;0.70;;;;;;;31.91;23.13;101121.28;5056596;28;20549;-70
2023/09/27 10:46:58;;;;;;;0.63;0.63;;;;;;;31.65;22.83;101125.88;5115415;27;20062;-70
2023/09/27 10:49:27;;;;;;;0.70;0.70;;;;;;;32.07;22.19;101133.16;5099354;27;20040;-69
2023/09/27 10:51:54;;;;;;;0.80;0.80;;;;;;;32.11;21.92;101124.69;5107568;27;20062;-68
2023/09/27 10:54:26;;;;;;;0.80;0.80;;;;;;;31.57;22.47;101121.34;5109122;27;20128;-69
2023/09/27 10:56:53;;;;;;;0.90;0.90;;;;;;;30.59;23.48;101115.28;5098844;27;20040;-68
2023/09/27 10:59:23;;;;;;;;;;;;;;;31.15;23.41;101124.09;5115086;27;20533;-70
2023/09/27 11:01:49;;;;;;;0.90;0.90;;;;;;;32.30;22.25;101119.97;5118857;27;19923;-70
2023/09/27 11:04:15;;;;;;;0.90;0.90;;;;;;;32.44;22.09;101122.09;5098008;28;20601;-68
2023/09/27 11:06:45;;;;;;;1.00;1.00;;;;;;;32.28;21.48;101111.88;5096056;27;20122;-67
2023/09/27 11:09:19;;;;;;;1.00;1.00;;;;;;;31.72;22.10;101114.66;5095558;27;20047;-70
2023/09/27 11:11:49;;;;;;;1.00;1.00;;;;;;;31.83;22.55;101115.56;5102394;27;20088;-69
2023/09/27 11:14:25;;;;;;;1.10;1.10;;;;;;;31.96;22.36;101115.28;5119113;27;20043;-70
2023/09/27 11:16:52;;;;;;;1.10;1.10;;;;;;;32.74;21.97;101102.06;5090404;28;20036;-70
2023/09/27 11:19:26;;;;;;;1.10;1.10;;;;;;;33.48;20.67;101101.94;5091444;27;20151;-69
2023/09/27 11:21:52;;;;;;;1.10;1.10;;;;;;;33.84;19.78;101097.50;5107736;27;20052;-69
2023/09/27 11:24:19;;;;;;;1.10;1.10;;;;;;;33.28;20.66;101098.63;5084117;27;20413;-70
2023/09/27 11:26:47;;;;;;;1.20;1.20;;;;;;;33.44;20.15;101103.97;5115929;27;20070;-70
2023/09/27 11:29:13;;;;;;;1.25;1.20;;;;;;;33.73;19.78;101103.19;5115605;27;20522;-71
2023/09/27 11:31:39;;;;;;;1.30;1.20;;;;;;;33.35;20.59;101093.00;5119918;27;20061;-70
2023/09/27 11:34:12;;;;;;;1.20;1.20;;;;;;;34.03;19.60;101097.16;5116473;27;20048;-68